createdAt,value
2018-09-05T00:00:09.869Z,19.53
2018-09-05T00:02:38.061Z,23.73
2018-09-05T00:05:06.136Z,23.00
2018-09-05T00:07:34.177Z,25.83
2018-09-05T00:10:02.230Z,22.53
2018-09-05T00:12:30.322Z,22.80
2018-09-05T00:14:58.372Z,23.07
2018-09-05T00:17:26.515Z,24.70
2018-09-05T00:19:54.580Z,26.67
2018-09-05T00:22:22.638Z,25.13
2018-09-05T00:24:50.687Z,27.10
2018-09-05T00:27:18.738Z,26.93
2018-09-05T00:29:46.795Z,25.70
2018-09-05T00:32:14.865Z,27.50
2018-09-05T00:34:42.914Z,27.73
2018-09-05T00:37:10.962Z,27.67
2018-09-05T00:39:39.022Z,27.83
2018-09-05T00:42:07.067Z,27.87
2018-09-05T00:44:35.129Z,25.83
2018-09-05T00:47:03.179Z,28.33
2018-09-05T00:49:31.362Z,30.00
2018-09-05T00:51:59.454Z,28.93
2018-09-05T00:54:27.493Z,30.00
2018-09-05T00:56:55.546Z,31.27
2018-09-05T00:59:23.580Z,31.20
2018-09-05T01:01:51.646Z,30.23
2018-09-05T01:04:19.713Z,30.10
2018-09-05T01:06:47.749Z,30.47
2018-09-05T01:09:15.799Z,30.27
2018-09-05T01:11:43.838Z,29.83
2018-09-05T01:14:11.898Z,29.93
2018-09-05T01:16:39.938Z,31.17
2018-09-05T01:19:07.987Z,30.77
2018-09-05T01:21:36.034Z,30.17
2018-09-05T01:24:04.095Z,29.13
2018-09-05T01:26:32.139Z,29.07
2018-09-05T01:29:00.222Z,30.80
2018-09-05T01:31:28.266Z,30.53
2018-09-05T01:33:56.309Z,28.40
2018-09-05T01:36:24.390Z,28.30
2018-09-05T01:38:52.448Z,29.07
2018-09-05T01:41:20.521Z,29.53
2018-09-05T01:43:48.590Z,29.30
2018-09-05T01:46:16.630Z,29.63
2018-09-05T01:48:44.674Z,30.17
2018-09-05T01:51:12.734Z,31.00
2018-09-05T01:53:40.780Z,31.47
2018-09-05T01:56:08.835Z,30.23
2018-09-05T01:58:36.869Z,28.67
2018-09-05T02:01:04.910Z,29.20
2018-09-05T02:03:32.954Z,32.97
2018-09-05T02:06:00.993Z,30.87
2018-09-05T02:08:29.064Z,30.90
2018-09-05T02:10:57.089Z,29.23
2018-09-05T02:13:25.182Z,32.93
2018-09-05T02:15:53.255Z,31.30
2018-09-05T02:18:21.281Z,29.97
2018-09-05T02:20:49.344Z,29.23
2018-09-05T02:23:17.394Z,31.00
2018-09-05T02:25:45.446Z,29.97
2018-09-05T02:28:13.533Z,32.60
2018-09-05T02:30:41.605Z,31.30
2018-09-05T02:33:09.646Z,30.23
2018-09-05T02:35:37.710Z,30.83
2018-09-05T02:38:05.774Z,29.57
2018-09-05T02:40:33.939Z,32.10
2018-09-05T02:43:01.922Z,31.00
2018-09-05T02:45:29.970Z,30.53
2018-09-05T02:47:58.035Z,32.57
2018-09-05T02:50:26.094Z,32.07
2018-09-05T02:52:54.150Z,33.60
2018-09-05T02:55:27.774Z,32.97
2018-09-05T02:57:55.838Z,33.73
2018-09-05T03:00:23.893Z,31.33
2018-09-05T03:02:51.950Z,33.53
2018-09-05T03:05:20.014Z,34.93
2018-09-05T03:07:48.079Z,33.30
2018-09-05T03:10:16.123Z,34.00
2018-09-05T03:12:44.166Z,35.10
2018-09-05T03:15:12.237Z,33.27
2018-09-05T03:17:40.306Z,32.53
2018-09-05T03:20:08.402Z,32.37
2018-09-05T03:22:36.454Z,31.93
2018-09-05T03:25:04.646Z,32.73
2018-09-05T03:27:32.702Z,35.33
2018-09-05T03:30:00.762Z,32.40
2018-09-05T03:32:28.944Z,34.67
2018-09-05T03:34:57.082Z,34.53
2018-09-05T03:37:25.151Z,32.93
2018-09-05T03:39:53.230Z,31.80
2018-09-05T03:42:21.317Z,30.70
2018-09-05T03:44:49.366Z,29.43
2018-09-05T03:47:17.419Z,28.17
2018-09-05T03:49:45.509Z,28.03
2018-09-05T03:52:13.551Z,28.03
2018-09-05T03:54:41.621Z,27.77
2018-09-05T03:57:09.718Z,29.70
2018-09-05T03:59:37.802Z,29.40
2018-09-05T04:02:05.888Z,28.67
2018-09-05T04:04:33.959Z,28.40
2018-09-05T04:07:02.014Z,27.50
2018-09-05T04:09:30.086Z,28.50
2018-09-05T04:11:58.203Z,25.83
2018-09-05T04:14:26.239Z,27.60
2018-09-05T04:16:54.337Z,24.70
2018-09-05T04:19:22.400Z,26.03
2018-09-05T04:21:50.495Z,24.43
2018-09-05T04:24:18.557Z,23.07
2018-09-05T04:26:46.622Z,23.63
2018-09-05T04:29:48.308Z,25.63
2018-09-05T04:32:16.338Z,24.07
2018-09-05T04:34:44.379Z,24.37
2018-09-05T04:37:12.438Z,23.80
2018-09-05T04:39:40.502Z,22.53
2018-09-05T04:42:08.552Z,23.03
2018-09-05T04:44:36.635Z,25.67
2018-09-05T04:47:04.706Z,27.57
2018-09-05T04:49:32.895Z,27.07
2018-09-05T04:52:00.952Z,28.97
2018-09-05T04:54:29.017Z,30.60
2018-09-05T04:56:57.075Z,29.13
2018-09-05T04:59:25.142Z,28.33
2018-09-05T05:01:53.199Z,32.40
2018-09-05T05:04:21.262Z,29.23
2018-09-05T05:06:49.334Z,30.90
2018-09-05T05:09:17.410Z,31.50
2018-09-05T05:11:45.463Z,32.50
2018-09-05T05:14:13.510Z,31.17
2018-09-05T05:16:41.561Z,33.80
2018-09-05T05:19:09.618Z,33.90
2018-09-05T05:21:37.682Z,33.50
2018-09-05T05:24:05.739Z,31.23
2018-09-05T05:26:33.830Z,35.20
2018-09-05T05:29:01.869Z,35.43
2018-09-05T05:31:29.910Z,35.13
2018-09-05T05:33:57.959Z,34.10
2018-09-05T05:36:26.050Z,33.03
2018-09-05T05:38:54.098Z,32.77
2018-09-05T05:41:22.146Z,31.23
2018-09-05T05:43:50.194Z,32.43
2018-09-05T05:46:18.213Z,30.63
2018-09-05T05:48:46.270Z,29.87
2018-09-05T05:51:14.330Z,30.73
2018-09-05T05:53:42.394Z,29.73
2018-09-05T05:56:10.453Z,31.20
2018-09-05T05:58:38.518Z,29.37
2018-09-05T06:01:06.626Z,31.80
2018-09-05T06:03:34.606Z,31.13
2018-09-05T06:06:02.695Z,30.50
2018-09-05T06:08:30.690Z,31.17
2018-09-05T06:10:58.742Z,31.77
2018-09-05T06:13:26.806Z,30.73
2018-09-05T06:15:54.861Z,33.13
2018-09-05T06:18:23.037Z,32.43
2018-09-05T06:20:51.205Z,33.70
2018-09-05T06:23:19.246Z,33.87
2018-09-05T06:25:47.326Z,34.77
2018-09-05T06:28:15.387Z,34.10
2018-09-05T06:30:43.562Z,35.40
2018-09-05T06:33:11.506Z,33.00
2018-09-05T06:35:39.537Z,33.20
2018-09-05T06:38:07.575Z,33.73
2018-09-05T06:40:35.626Z,29.43
2018-09-05T06:43:03.670Z,31.47
2018-09-05T06:45:31.856Z,31.50
2018-09-05T06:47:59.803Z,30.93
2018-09-05T06:50:27.834Z,30.83
2018-09-05T06:52:55.879Z,29.23
2018-09-05T06:55:23.914Z,29.60
2018-09-05T06:57:51.965Z,30.00
2018-09-05T07:00:20.014Z,30.23
2018-09-05T07:02:48.250Z,29.00
2018-09-05T07:05:16.837Z,30.47
2018-09-05T07:07:44.878Z,31.10
2018-09-05T07:10:13.130Z,31.20
2018-09-05T07:12:41.178Z,31.30
2018-09-05T07:15:09.222Z,30.47
2018-09-05T07:17:37.337Z,33.47
2018-09-05T07:20:05.294Z,31.00
2018-09-05T07:22:33.354Z,33.10
2018-09-05T07:25:01.424Z,32.10
2018-09-05T07:27:29.473Z,30.17
2018-09-05T07:29:57.494Z,30.63
2018-09-05T07:32:25.542Z,31.33
2018-09-05T07:34:53.586Z,30.47
2018-09-05T07:37:21.626Z,28.93
2018-09-05T07:39:49.673Z,29.40
2018-09-05T07:42:17.722Z,28.00
2018-09-05T07:44:45.766Z,27.77
2018-09-05T07:47:13.818Z,27.80
2018-09-05T07:49:41.858Z,26.53
2018-09-05T07:52:09.923Z,25.87
2018-09-05T07:54:37.961Z,26.00
2018-09-05T07:57:06.017Z,27.77
2018-09-05T07:59:34.098Z,26.30
2018-09-05T08:02:02.285Z,27.40
2018-09-05T08:06:57.717Z,25.77
2018-09-05T08:19:15.330Z,21.50
2018-09-05T09:03:28.974Z,19.40
2018-09-05T09:15:48.841Z,20.97
2018-09-05T09:28:06.533Z,20.90
2018-09-05T09:37:56.789Z,20.50
2018-09-05T09:52:41.852Z,20.07
2018-09-05T09:55:09.906Z,19.20
2018-09-05T10:00:06.514Z,18.30
2018-09-05T10:02:40.153Z,18.57
2018-09-05T10:05:13.718Z,17.48
2018-09-05T10:07:47.135Z,18.15
2018-09-05T10:10:20.861Z,17.50
2018-09-05T10:12:49.090Z,18.55
2018-09-05T10:15:22.538Z,19.77
2018-09-05T10:17:56.202Z,17.37
2018-09-05T10:20:24.251Z,17.25
2018-09-05T10:22:52.306Z,17.80
2018-09-05T10:27:47.793Z,16.82
2018-09-05T10:30:15.841Z,18.12
2018-09-05T10:32:43.903Z,18.20
2018-09-05T10:35:11.955Z,18.02
2018-09-05T10:37:40.023Z,18.20
2018-09-05T10:40:08.106Z,16.67
2018-09-05T10:42:36.162Z,19.00
2018-09-05T10:45:04.275Z,16.93
2018-09-05T10:47:32.310Z,17.27
2018-09-05T10:50:00.399Z,16.67
2018-09-05T10:52:28.462Z,16.85
2018-09-05T10:54:56.540Z,15.98
2018-09-05T10:57:24.588Z,16.42
2018-09-05T10:59:52.702Z,17.15
2018-09-05T11:02:20.767Z,17.92
2018-09-05T11:07:16.223Z,16.30
2018-09-05T11:09:44.270Z,16.65
2018-09-05T11:12:12.323Z,18.20
2018-09-05T11:14:40.391Z,16.57
2018-09-05T11:29:25.450Z,14.00
2018-09-05T11:34:20.902Z,14.53
2018-09-05T11:36:49.005Z,13.87
2018-09-05T12:18:37.817Z,11.08
2018-09-05T12:26:00.666Z,11.90
2018-09-05T12:28:28.761Z,11.45
2018-09-05T12:30:56.790Z,11.70
2018-09-05T12:33:24.878Z,11.12
2018-09-05T12:35:52.943Z,10.88
2018-09-05T12:38:21.067Z,10.95
2018-09-05T12:40:49.085Z,11.25
2018-09-05T12:48:11.911Z,11.20
2018-09-05T12:50:39.978Z,11.45
2018-09-05T12:58:03.038Z,10.60
2018-09-05T13:02:58.502Z,10.82
2018-09-05T13:05:26.582Z,11.10
2018-09-05T13:07:54.650Z,11.45
2018-09-05T13:10:22.740Z,11.53
2018-09-05T13:12:50.794Z,10.80
2018-09-05T13:25:08.618Z,11.38
2018-09-05T13:30:04.218Z,11.00
2018-09-05T13:42:21.858Z,11.10
2018-09-05T13:47:17.334Z,10.43
2018-09-05T14:11:55.758Z,10.82
2018-09-05T14:14:23.806Z,10.60
2018-09-05T14:21:46.633Z,10.43
2018-09-05T15:57:36.667Z,10.10
2018-09-05T16:04:59.466Z,9.90
2018-09-05T16:07:27.515Z,10.10
2018-09-05T16:09:55.564Z,9.90
2018-09-05T16:12:23.608Z,10.20
2018-09-05T16:14:51.722Z,9.93
2018-09-05T16:17:19.787Z,10.23
2018-09-05T16:19:47.835Z,10.35
2018-09-05T16:22:15.902Z,10.37
2018-09-05T16:24:43.946Z,9.55
2018-09-05T16:27:12.001Z,10.98
2018-09-05T16:29:40.061Z,10.37
2018-09-05T16:32:08.108Z,10.85
2018-09-05T16:34:36.399Z,10.23
2018-09-05T16:37:04.454Z,10.55
2018-09-05T16:39:32.526Z,10.88
2018-09-05T16:42:00.554Z,10.38
2018-09-05T16:44:28.622Z,10.48
2018-09-05T16:46:56.682Z,10.85
2018-09-05T16:49:24.713Z,10.60
2018-09-05T16:51:52.765Z,10.88
2018-09-05T16:54:20.809Z,11.12
2018-09-05T16:56:48.874Z,10.80
2018-09-05T16:59:16.946Z,10.70
2018-09-05T17:01:45.010Z,11.40
2018-09-05T17:04:13.050Z,11.22
2018-09-05T17:06:41.103Z,12.15
2018-09-05T17:09:10.622Z,11.18
2018-09-05T17:11:38.714Z,11.18
2018-09-05T17:14:06.842Z,11.28
2018-09-05T17:16:35.101Z,11.57
2018-09-05T17:19:03.158Z,12.25
2018-09-05T17:21:31.321Z,12.47
2018-09-05T17:23:59.398Z,11.55
2018-09-05T17:26:27.446Z,11.75
2018-09-05T17:28:55.587Z,12.37
2018-09-05T17:31:23.633Z,11.77
2018-09-05T17:33:51.675Z,11.65
2018-09-05T17:36:19.740Z,11.63
2018-09-05T17:38:47.786Z,11.38
2018-09-05T17:41:15.966Z,11.35
2018-09-05T17:43:44.015Z,11.50
2018-09-05T17:46:12.163Z,11.33
2018-09-05T17:48:40.182Z,11.60
2018-09-05T17:51:08.225Z,11.95
2018-09-05T17:53:36.286Z,11.60
2018-09-05T17:56:04.326Z,12.40
2018-09-05T17:58:32.370Z,11.35
2018-09-05T18:01:02.370Z,11.35
2018-09-05T18:03:30.427Z,12.15
2018-09-05T18:05:58.493Z,12.47
2018-09-05T18:08:26.587Z,11.97
2018-09-05T18:10:54.617Z,12.45
2018-09-05T18:13:22.683Z,12.25
2018-09-05T18:15:50.750Z,12.90
2018-09-05T18:18:18.835Z,12.37
2018-09-05T18:20:46.903Z,12.80
2018-09-05T18:23:15.012Z,12.18
2018-09-05T18:25:43.075Z,12.13
2018-09-05T18:28:11.171Z,12.80
2018-09-05T18:35:34.070Z,12.10
2018-09-05T18:40:29.713Z,13.83
2018-09-05T18:42:58.667Z,13.38
2018-09-05T18:45:26.731Z,13.20
2018-09-05T18:47:54.810Z,13.62
2018-09-05T18:50:22.921Z,14.25
2018-09-05T18:52:55.246Z,13.58
2018-09-05T18:55:23.329Z,13.22
2018-09-05T18:57:51.445Z,12.68
2018-09-05T19:00:19.498Z,12.45
2018-09-05T19:02:47.623Z,13.70
2018-09-05T19:05:15.694Z,14.43
2018-09-05T19:07:43.806Z,14.53
2018-09-05T19:10:11.885Z,13.00
2018-09-05T19:12:39.956Z,14.40
2018-09-05T19:15:08.083Z,13.50
2018-09-05T19:17:36.290Z,13.78
2018-09-05T19:20:04.371Z,14.28
2018-09-05T19:22:32.467Z,14.30
2018-09-05T19:25:00.529Z,13.78
2018-09-05T19:27:28.607Z,14.20
2018-09-05T19:32:24.056Z,13.77
2018-09-05T19:34:52.142Z,14.23
2018-09-05T19:44:42.414Z,14.97
2018-09-05T19:47:10.538Z,14.90
2018-09-05T19:49:38.599Z,14.90
2018-09-05T19:52:06.654Z,14.90
2018-09-05T19:54:34.702Z,14.33
2018-09-05T19:57:02.781Z,14.90
2018-09-05T19:59:30.811Z,15.10
2018-09-05T20:01:58.946Z,15.87
2018-09-05T20:04:27.119Z,15.37
2018-09-05T20:06:55.185Z,15.88
2018-09-05T20:09:23.294Z,15.63
2018-09-05T20:11:51.359Z,15.93
2018-09-05T20:14:19.430Z,15.37
2018-09-05T20:16:47.506Z,15.70
2018-09-05T20:19:15.589Z,16.93
2018-09-05T20:21:43.665Z,16.27
2018-09-05T20:24:11.719Z,16.20
2018-09-05T20:26:39.782Z,15.87
2018-09-05T20:29:07.861Z,15.43
2018-09-05T20:31:35.945Z,15.37
2018-09-05T20:34:04.002Z,14.77
2018-09-05T20:36:32.475Z,15.10
2018-09-05T20:39:00.622Z,15.47
2018-09-05T20:41:28.662Z,16.37
2018-09-05T20:43:56.765Z,15.30
2018-09-05T20:46:24.834Z,15.60
2018-09-05T20:48:52.895Z,16.67
2018-09-05T20:51:21.238Z,17.17
2018-09-05T20:53:49.282Z,16.00
2018-09-05T20:56:17.600Z,16.70
2018-09-05T20:58:45.723Z,17.03
2018-09-05T21:01:13.718Z,16.03
2018-09-05T21:03:41.786Z,14.93
2018-09-05T21:06:09.876Z,16.97
2018-09-05T21:08:37.903Z,15.73
2018-09-05T21:11:05.991Z,16.23
2018-09-05T21:13:34.042Z,16.03
2018-09-05T21:16:02.131Z,16.87
2018-09-05T21:18:30.175Z,15.90
2018-09-05T21:20:59.210Z,16.37
2018-09-05T21:23:28.247Z,17.00
2018-09-05T21:25:56.318Z,16.20
2018-09-05T21:28:24.369Z,18.53
2018-09-05T21:30:52.630Z,18.37
2018-09-05T21:33:20.673Z,19.93
2018-09-05T21:35:48.757Z,19.80
2018-09-05T21:38:16.837Z,19.93
2018-09-05T21:40:44.882Z,18.53
2018-09-05T21:43:12.945Z,19.47
2018-09-05T21:45:40.993Z,17.53
2018-09-05T21:48:09.095Z,18.27
2018-09-05T21:50:37.114Z,18.63
2018-09-05T21:53:05.282Z,18.80
2018-09-05T21:55:33.840Z,18.37
2018-09-05T21:58:01.935Z,18.50
2018-09-05T22:00:29.987Z,19.50
2018-09-05T22:02:58.057Z,18.30
2018-09-05T22:05:26.153Z,17.90
2018-09-05T22:07:54.430Z,18.67
2018-09-05T22:10:22.986Z,17.87
2018-09-05T22:12:51.082Z,17.63
2018-09-05T22:15:19.144Z,18.33
2018-09-05T22:17:47.194Z,18.37
2018-09-05T22:20:15.266Z,18.57
2018-09-05T22:22:43.362Z,17.10
2018-09-05T22:25:11.410Z,16.67
2018-09-05T22:27:39.478Z,17.40
2018-09-05T22:30:07.522Z,17.83
2018-09-05T22:32:35.570Z,18.13
2018-09-05T22:35:03.722Z,17.53
2018-09-05T22:37:31.770Z,17.37
2018-09-05T22:39:59.822Z,19.23
2018-09-05T22:42:27.881Z,18.63
2018-09-05T22:45:07.506Z,19.73
2018-09-05T22:47:43.418Z,19.77
2018-09-05T22:50:54.234Z,20.87
2018-09-05T22:53:37.667Z,21.83
2018-09-05T22:56:17.382Z,21.63
2018-09-05T22:58:57.600Z,20.43
2018-09-05T23:01:35.483Z,19.73
2018-09-05T23:04:15.623Z,20.00
2018-09-05T23:07:52.674Z,20.87
2018-09-05T23:10:32.203Z,20.03
2018-09-05T23:13:11.835Z,21.40
2018-09-05T23:15:51.351Z,22.67
2018-09-05T23:18:46.516Z,20.63
2018-09-05T23:21:18.737Z,20.53
2018-09-05T23:23:54.386Z,22.00
2018-09-05T23:26:22.437Z,22.20
2018-09-05T23:28:50.487Z,23.90
2018-09-05T23:31:18.740Z,24.60
2018-09-05T23:33:46.815Z,23.47
2018-09-05T23:36:14.878Z,22.50
2018-09-05T23:38:42.927Z,22.70
2018-09-05T23:41:10.995Z,23.43
2018-09-05T23:43:39.072Z,23.87
2018-09-05T23:46:07.145Z,23.20
2018-09-05T23:48:35.198Z,26.03
2018-09-05T23:51:03.264Z,24.57
2018-09-05T23:53:31.332Z,26.10
2018-09-05T23:55:59.421Z,27.50
2018-09-05T23:58:27.491Z,26.07
